Time;durP1;ratioP1;P1;durP2;ratioP2;P2;SDS_P1;SDS_P2;PMS_P1;PMS_P2;Temp;Humidity;BMP_temperature;BMP_pressure;BME280_temperature;BME280_humidity;BME280_pressure;Samples;Min_cycle;Max_cycle;Signal;HPM_P1;HPM_P2
2021/08/09 00:00:42;;;;;;;4.20;1.88;;;15.00;99.90;;;;;;4992120;28;20022;-72
2021/08/09 00:03:08;;;;;;;2.65;1.40;;;15.10;99.90;;;;;;4991855;28;20105;-74
2021/08/09 00:05:34;;;;;;;6.18;1.83;;;15.00;99.90;;;;;;4993017;28;20466;-72
2021/08/09 00:08:00;;;;;;;4.22;1.77;;;15.00;99.90;;;;;;4992957;28;20036;-72
2021/08/09 00:10:28;;;;;;;1.60;1.48;;;15.00;99.90;;;;;;4993136;28;20085;-72
2021/08/09 00:12:54;;;;;;;2.90;1.77;;;14.90;99.90;;;;;;4992944;28;20564;-73
2021/08/09 00:15:20;;;;;;;3.97;1.85;;;14.90;99.90;;;;;;4992972;28;20035;-72
2021/08/09 00:17:46;;;;;;;6.28;2.97;;;14.90;99.90;;;;;;4992629;28;20038;-72
2021/08/09 00:20:12;;;;;;;4.05;2.80;;;14.80;99.90;;;;;;4992762;28;20398;-71
2021/08/09 00:22:38;;;;;;;3.78;1.90;;;14.80;99.90;;;;;;4991459;28;20022;-71
2021/08/09 00:25:05;;;;;;;4.22;1.70;;;14.80;99.90;;;;;;4991424;28;20045;-73
2021/08/09 00:27:30;;;;;;;2.72;1.38;;;14.80;99.90;;;;;;4992744;28;20033;-71
2021/08/09 00:29:56;;;;;;;2.88;1.75;;;14.80;99.90;;;;;;4992690;28;20375;-72
2021/08/09 00:32:21;;;;;;;3.40;2.08;;;14.90;99.90;;;;;;4992626;28;20030;-74
2021/08/09 00:34:47;;;;;;;4.93;1.90;;;14.90;99.90;;;;;;4991366;28;20027;-72
2021/08/09 00:37:12;;;;;;;2.33;1.75;;;14.90;99.90;;;;;;4992513;28;20030;-71
2021/08/09 00:39:38;;;;;;;4.25;2.17;;;14.70;99.90;;;;;;4991389;28;20045;-72
2021/08/09 00:42:03;;;;;;;4.82;1.90;;;14.60;99.90;;;;;;4991284;28;20121;-73
2021/08/09 00:44:29;;;;;;;4.72;2.08;;;14.60;99.90;;;;;;4991334;28;20489;-72
2021/08/09 00:46:55;;;;;;;3.15;2.08;;;14.50;99.90;;;;;;4992234;28;20034;-72
2021/08/09 00:49:20;;;;;;;3.50;2.42;;;14.40;99.90;;;;;;4992571;28;20045;-71
2021/08/09 00:51:46;;;;;;;4.22;2.53;;;14.30;99.90;;;;;;4991235;28;20026;-72
2021/08/09 00:54:12;;;;;;;5.63;2.25;;;14.30;99.90;;;;;;4992557;28;20030;-72
2021/08/09 00:56:38;;;;;;;4.60;1.65;;;14.30;99.90;;;;;;4992168;28;20049;-72
2021/08/09 00:59:04;;;;;;;2.35;2.00;;;14.30;99.90;;;;;;4992515;28;20462;-72
2021/08/09 01:01:30;;;;;;;5.43;2.22;;;14.20;99.90;;;;;;4992449;28;20019;-72
2021/08/09 01:03:55;;;;;;;2.38;2.03;;;14.30;99.90;;;;;;4992342;28;20085;-71
2021/08/09 01:06:21;;;;;;;2.60;2.00;;;14.30;99.90;;;;;;4992257;28;20053;-72
2021/08/09 01:08:53;;;;;;;2.58;1.60;;;14.20;99.90;;;;;;4994093;28;20041;-72
2021/08/09 01:11:43;;;;;;;2.17;1.80;;;14.20;99.90;;;;;;4996365;28;20484;-72
2021/08/09 01:14:08;;;;;;;4.07;2.10;;;14.20;99.90;;;;;;4996362;28;20030;-71
2021/08/09 01:16:37;;;;;;;3.95;2.10;;;14.10;99.90;;;;;;4995819;28;20038;-72
2021/08/09 01:19:30;;;;;;;2.25;1.73;;;14.10;99.90;;;;;;4996232;28;20458;-71
2021/08/09 01:22:06;;;;;;;2.63;1.77;;;14.20;99.90;;;;;;4995960;28;20092;-71
2021/08/09 01:24:52;;;;;;;2.75;1.70;;;14.10;99.90;;;;;;4996077;28;20072;-71
2021/08/09 01:27:32;;;;;;;3.40;1.60;;;14.20;99.90;;;;;;4994658;28;20030;-74
2021/08/09 01:30:02;;;;;;;2.05;1.27;;;14.30;99.90;;;;;;4996482;28;20057;-72
2021/08/09 01:32:30;;;;;;;3.95;1.77;;;14.30;99.90;;;;;;4996020;28;20023;-72
2021/08/09 01:34:56;;;;;;;3.70;1.73;;;14.30;99.90;;;;;;4995841;28;20498;-71
2021/08/09 01:37:25;;;;;;;4.57;1.60;;;14.20;99.90;;;;;;4995758;28;20036;-71
2021/08/09 01:39:52;;;;;;;2.70;1.92;;;14.20;99.90;;;;;;4994459;28;20438;-72
2021/08/09 01:42:19;;;;;;;4.93;2.22;;;14.10;99.90;;;;;;4995744;28;20050;-72
2021/08/09 01:44:46;;;;;;;4.43;2.30;;;14.10;99.90;;;;;;4995611;28;20019;-72
2021/08/09 01:47:11;;;;;;;3.35;2.60;;;14.00;99.90;;;;;;4994186;28;20037;-72
2021/08/09 01:49:37;;;;;;;7.50;2.65;;;14.00;99.90;;;;;;4995727;28;20034;-72
2021/08/09 01:52:04;;;;;;;4.22;2.58;;;14.00;99.90;;;;;;4995588;28;20389;-72
2021/08/09 01:54:30;;;;;;;4.80;2.80;;;13.90;99.90;;;;;;4994283;28;20027;-72
2021/08/09 01:56:56;;;;;;;5.43;2.50;;;14.10;99.90;;;;;;4995170;28;20033;-73
2021/08/09 01:59:22;;;;;;;6.65;2.35;;;14.10;99.90;;;;;;4995336;28;20027;-72
2021/08/09 02:01:48;;;;;;;3.75;2.33;;;14.00;99.90;;;;;;4995461;28;20018;-73
2021/08/09 02:04:14;;;;;;;3.80;2.10;;;13.90;99.90;;;;;;4995417;28;20532;-72
2021/08/09 02:06:39;;;;;;;3.53;2.25;;;13.80;99.90;;;;;;4995098;28;20109;-73
2021/08/09 02:09:07;;;;;;;3.35;2.20;;;13.80;99.90;;;;;;4995236;28;20030;-71
2021/08/09 02:11:49;;;;;;;2.65;1.70;;;13.80;99.90;;;;;;4993984;28;20460;-72
2021/08/09 02:14:18;;;;;;;3.65;2.13;;;13.70;99.90;;;;;;4995065;28;20427;-72
2021/08/09 02:17:06;;;;;;;6.75;2.15;;;13.60;99.90;;;;;;4994738;28;20034;-71
2021/08/09 02:19:43;;;;;;;2.60;1.92;;;13.50;99.90;;;;;;4994640;28;20018;-72
2021/08/09 02:22:16;;;;;;;4.95;2.13;;;13.50;99.90;;;;;;4995071;28;20026;-73
2021/08/09 02:24:57;;;;;;;4.35;2.28;;;13.50;99.90;;;;;;4994365;28;20026;-72
2021/08/09 02:27:26;;;;;;;3.90;2.28;;;13.50;99.90;;;;;;4995370;28;20490;-72
2021/08/09 02:29:53;;;;;;;4.10;2.20;;;13.40;99.90;;;;;;4993819;28;20058;-73
2021/08/09 02:32:24;;;;;;;3.35;1.92;;;13.40;99.90;;;;;;4994980;28;20022;-71
2021/08/09 02:34:51;;;;;;;4.82;2.35;;;13.40;99.90;;;;;;4993651;28;20053;-73
2021/08/09 02:37:18;;;;;;;4.22;2.00;;;13.40;99.90;;;;;;4994618;28;20036;-72
2021/08/09 02:39:46;;;;;;;5.03;2.58;;;13.30;99.90;;;;;;4994787;28;20494;-72
2021/08/09 02:42:11;;;;;;;5.18;2.30;;;13.30;99.90;;;;;;4994857;28;20026;-72
2021/08/09 02:44:39;;;;;;;7.97;2.80;;;13.30;99.90;;;;;;4994863;28;20478;-72
2021/08/09 02:47:06;;;;;;;6.82;2.15;;;13.30;99.90;;;;;;4993470;28;20040;-72
2021/08/09 02:49:33;;;;;;;5.25;2.40;;;13.20;99.90;;;;;;4995181;28;20191;-72
2021/08/09 02:52:00;;;;;;;4.20;2.42;;;13.20;99.90;;;;;;4993679;28;20561;-71
2021/08/09 02:54:27;;;;;;;5.45;2.30;;;13.10;99.90;;;;;;4997404;28;20034;-72
2021/08/09 02:56:53;;;;;;;6.05;2.58;;;13.10;99.90;;;;;;4994421;28;20077;-71
2021/08/09 02:59:19;;;;;;;4.13;2.63;;;13.10;99.90;;;;;;4994872;28;20497;-72
2021/08/09 03:01:44;;;;;;;7.18;3.05;;;13.10;99.90;;;;;;4993063;28;20046;-72
2021/08/09 03:04:13;;;;;;;3.40;2.67;;;13.10;99.90;;;;;;4994297;28;20019;-72
2021/08/09 03:06:39;;;;;;;9.90;4.05;;;13.10;99.90;;;;;;4994198;28;20052;-72
2021/08/09 03:09:07;;;;;;;4.10;2.95;;;13.00;99.90;;;;;;4994097;28;20030;-72
2021/08/09 03:11:36;;;;;;;10.88;2.72;;;13.00;99.90;;;;;;4994072;28;20026;-72
2021/08/09 03:14:02;;;;;;;5.55;3.00;;;13.00;99.90;;;;;;4994080;28;20027;-72
2021/08/09 03:16:28;;;;;;;8.75;3.03;;;13.00;99.90;;;;;;4993812;28;20034;-72
2021/08/09 03:18:53;;;;;;;7.45;2.85;;;13.00;99.90;;;;;;4993965;28;20029;-71
2021/08/09 03:21:19;;;;;;;5.78;2.53;;;13.00;99.90;;;;;;4993869;28;20386;-72
2021/08/09 03:23:44;;;;;;;6.78;2.75;;;12.90;99.90;;;;;;4993763;28;20101;-72
2021/08/09 03:26:10;;;;;;;4.07;2.45;;;12.90;99.90;;;;;;4993646;28;20050;-73
2021/08/09 03:28:37;;;;;;;4.65;2.13;;;12.90;99.90;;;;;;4992435;28;20097;-70
2021/08/09 03:31:03;;;;;;;8.48;2.75;;;12.90;99.90;;;;;;4991587;28;20034;-73
2021/08/09 03:33:29;;;;;;;6.55;2.50;;;12.90;99.90;;;;;;4992500;28;20081;-71
2021/08/09 03:35:55;;;;;;;7.32;2.97;;;12.90;99.90;;;;;;4993667;28;20026;-72
2021/08/09 03:38:21;;;;;;;7.75;2.80;;;13.00;99.90;;;;;;4992240;28;20034;-71
2021/08/09 03:40:46;;;;;;;6.85;2.65;;;13.10;99.90;;;;;;4993763;28;20058;-71
2021/08/09 03:43:12;;;;;;;4.00;2.20;;;13.20;99.90;;;;;;4993518;28;20023;-71
2021/08/09 03:45:37;;;;;;;3.53;2.10;;;13.20;99.90;;;;;;4993443;28;20022;-71
2021/08/09 03:48:06;;;;;;;7.57;2.28;;;13.20;99.90;;;;;;4993325;28;20387;-72
2021/08/09 03:50:32;;;;;;;6.35;2.60;;;13.10;99.90;;;;;;4993389;28;20022;-71
2021/08/09 03:52:57;;;;;;;8.40;2.92;;;13.10;99.90;;;;;;4991980;28;20505;-72
2021/08/09 03:55:23;;;;;;;7.00;2.88;;;13.00;99.90;;;;;;4991937;28;20026;-73
2021/08/09 03:57:48;;;;;;;3.92;2.17;;;13.10;99.90;;;;;;4991822;28;20084;-72
2021/08/09 04:00:14;;;;;;;5.03;2.50;;;13.10;99.90;;;;;;4991889;28;20018;-72
2021/08/09 04:02:40;;;;;;;4.70;2.10;;;13.20;99.90;;;;;;4993255;28;20030;-72
2021/08/09 04:05:10;;;;;;;4.85;1.83;;;13.20;99.90;;;;;;4993011;28;20050;-74
2021/08/09 04:07:37;;;;;;;5.10;2.50;;;13.30;99.90;;;;;;4991609;28;20104;-72
2021/08/09 04:10:05;;;;;;;7.03;2.13;;;13.30;99.90;;;;;;4991582;28;20039;-70
2021/08/09 04:12:31;;;;;;;6.07;2.22;;;13.20;99.90;;;;;;4992295;28;20410;-72
2021/08/09 04:14:56;;;;;;;6.20;2.70;;;13.10;99.90;;;;;;4992884;28;20028;-73
2021/08/09 04:17:22;;;;;;;7.97;2.25;;;13.10;99.90;;;;;;4991477;28;20041;-73
2021/08/09 04:19:47;;;;;;;5.03;2.55;;;13.00;99.90;;;;;;4991664;28;20021;-72
2021/08/09 04:22:13;;;;;;;7.47;2.65;;;13.00;99.90;;;;;;4992617;28;20030;-72
2021/08/09 04:24:38;;;;;;;5.07;2.60;;;13.00;99.90;;;;;;4992803;28;20018;-73
2021/08/09 04:27:04;;;;;;;6.35;2.70;;;13.00;99.90;;;;;;4991455;28;20030;-72
2021/08/09 04:29:29;;;;;;;6.22;2.67;;;13.20;99.90;;;;;;4991452;28;20394;-73
2021/08/09 04:31:55;;;;;;;5.47;2.45;;;13.40;99.90;;;;;;4992703;28;20109;-72
2021/08/09 04:34:20;;;;;;;4.78;2.30;;;13.50;99.90;;;;;;4992561;28;20109;-72
2021/08/09 04:36:46;;;;;;;7.15;2.05;;;13.50;99.90;;;;;;4992362;28;20113;-74
2021/08/09 04:39:11;;;;;;;3.15;1.83;;;13.40;99.90;;;;;;4992682;28;20022;-72
2021/08/09 04:41:37;;;;;;;5.65;2.25;;;13.40;99.90;;;;;;4992664;28;20026;-73
2021/08/09 04:44:03;;;;;;;5.00;1.67;;;13.30;99.90;;;;;;4992504;28;20394;-72
2021/08/09 04:46:28;;;;;;;2.97;2.00;;;13.40;99.90;;;;;;4991401;28;20026;-72
2021/08/09 04:48:54;;;;;;;6.22;2.30;;;13.40;99.90;;;;;;4992482;28;20023;-72
2021/08/09 04:51:19;;;;;;;5.13;1.80;;;13.50;99.90;;;;;;4992343;28;20097;-73
2021/08/09 04:53:45;;;;;;;7.43;2.00;;;13.60;99.90;;;;;;4992390;28;20344;-74
2021/08/09 04:56:10;;;;;;;4.63;2.00;;;13.80;99.90;;;;;;4992250;28;20101;-71
2021/08/09 04:58:36;;;;;;;5.65;2.13;;;13.80;99.90;;;;;;4992337;28;20031;-72
2021/08/09 05:01:02;;;;;;;4.60;2.00;;;13.80;99.90;;;;;;4992349;28;20023;-72
2021/08/09 05:03:27;;;;;;;4.38;2.13;;;13.90;99.90;;;;;;4992273;28;20101;-72
2021/08/09 05:05:53;;;;;;;4.50;2.53;;;14.00;99.90;;;;;;4991164;28;20090;-72
2021/08/09 05:08:18;;;;;;;3.28;2.00;;;14.10;99.90;;;;;;4990807;28;20471;-72
2021/08/09 05:10:44;;;;;;;5.10;1.67;;;14.50;99.90;;;;;;4992420;28;20154;-72
2021/08/09 05:13:09;;;;;;;2.45;1.60;;;15.10;99.90;;;;;;4992229;28;20033;-72
2021/08/09 05:15:37;;;;;;;2.50;1.98;;;15.70;99.90;;;;;;4992125;28;20061;-71
2021/08/09 05:18:03;;;;;;;7.78;1.85;;;16.10;99.90;;;;;;4992003;28;20089;-72
2021/08/09 05:20:30;;;;;;;4.65;2.90;;;16.40;99.90;;;;;;4992151;28;20022;-72
2021/08/09 05:22:55;;;;;;;4.93;2.05;;;16.70;99.90;;;;;;4992454;28;20050;-73
2021/08/09 05:25:22;;;;;;;5.05;1.73;;;16.60;99.90;;;;;;4992102;28;20056;-72
2021/08/09 05:27:47;;;;;;;5.35;2.20;;;16.70;99.90;;;;;;4991828;28;20030;-72
2021/08/09 05:30:13;;;;;;;4.13;1.30;;;17.10;99.90;;;;;;4991877;28;20109;-73
2021/08/09 05:32:39;;;;;;;3.45;1.58;;;17.50;99.90;;;;;;4992080;28;20062;-72
2021/08/09 05:35:08;;;;;;;3.72;1.63;;;17.70;99.90;;;;;;4992132;28;20452;-73
2021/08/09 05:37:34;;;;;;;5.07;1.42;;;17.80;99.90;;;;;;4991799;28;20113;-72
2021/08/09 05:40:01;;;;;;;4.88;1.70;;;18.00;99.90;;;;;;4991947;28;20019;-73
2021/08/09 05:42:27;;;;;;;8.07;1.55;;;18.60;99.90;;;;;;4991843;28;20025;-72
2021/08/09 05:44:53;;;;;;;5.82;1.88;;;19.00;99.90;;;;;;4991825;28;20018;-73
2021/08/09 05:47:19;;;;;;;4.15;1.38;;;18.80;99.90;;;;;;4990501;28;20036;-71
2021/08/09 05:49:44;;;;;;;4.85;1.50;;;18.60;99.90;;;;;;4990556;28;20109;-72
2021/08/09 05:52:26;;;;;;;3.13;1.60;;;18.60;99.90;;;;;;4991868;28;20132;-72
2021/08/09 05:54:53;;;;;;;7.65;1.50;;;18.60;99.90;;;;;;4993570;28;20033;-73
2021/08/09 05:57:18;;;;;;;7.65;1.88;;;18.70;99.90;;;;;;4995268;28;20026;-73
2021/08/09 05:59:47;;;;;;;4.22;1.52;;;18.70;99.90;;;;;;4994105;28;20023;-72
2021/08/09 06:02:13;;;;;;;4.32;1.45;;;18.80;99.90;;;;;;4994085;28;20028;-71
2021/08/09 06:04:39;;;;;;;4.68;1.65;;;18.70;99.90;;;;;;4994059;28;20018;-73
2021/08/09 06:07:05;;;;;;;1.50;1.30;;;18.80;99.90;;;;;;4995189;28;20034;-72
2021/08/09 06:09:30;;;;;;;2.95;1.48;;;18.80;99.90;;;;;;4995080;28;20081;-72
2021/08/09 06:11:56;;;;;;;4.47;1.55;;;19.30;99.90;;;;;;4995154;28;20452;-72
2021/08/09 06:14:21;;;;;;;4.03;1.30;;;19.50;99.90;;;;;;4995236;28;20505;-72
2021/08/09 06:16:47;;;;;;;6.47;1.60;;;19.70;99.90;;;;;;4993575;28;20030;-72
2021/08/09 06:19:12;;;;;;;5.43;1.50;;;18.80;99.90;;;;;;4995203;28;20097;-72
2021/08/09 06:21:38;;;;;;;5.75;2.08;;;18.30;99.90;;;;;;4993809;28;20162;-74
2021/08/09 06:24:04;;;;;;;4.78;1.60;;;17.90;99.90;;;;;;4994758;28;20077;-72
2021/08/09 06:26:29;;;;;;;3.40;1.45;;;17.90;99.90;;;;;;4994791;28;20018;-73
2021/08/09 06:28:55;;;;;;;12.68;2.10;;;17.60;99.90;;;;;;4995402;28;20026;-72
2021/08/09 06:31:20;;;;;;;3.67;1.70;;;17.40;99.90;;;;;;4994841;28;20026;-72
2021/08/09 06:33:46;;;;;;;8.85;2.05;;;17.60;99.90;;;;;;4993415;28;20489;-72
2021/08/09 06:36:13;;;;;;;2.40;1.40;;;17.60;99.90;;;;;;4994754;28;20042;-73
2021/08/09 06:38:39;;;;;;;8.27;2.80;;;17.70;99.90;;;;;;4994823;28;20046;-73
2021/08/09 06:41:04;;;;;;;6.82;2.15;;;17.70;99.90;;;;;;4994920;28;20050;-72
2021/08/09 06:43:30;;;;;;;3.58;2.75;;;17.80;99.90;;;;;;4993321;28;20508;-72
2021/08/09 06:45:55;;;;;;;5.85;2.63;;;18.00;99.90;;;;;;4993081;28;20038;-72
2021/08/09 06:48:21;;;;;;;6.70;2.45;;;17.90;99.90;;;;;;4994560;28;20026;-72
2021/08/09 06:50:46;;;;;;;7.85;2.55;;;17.90;99.90;;;;;;4994582;28;20314;-72
2021/08/09 06:53:12;;;;;;;12.52;2.97;;;17.90;99.90;;;;;;4994439;28;20470;-72
2021/08/09 06:55:37;;;;;;;4.57;1.95;;;18.00;99.90;;;;;;4994228;28;20110;-71
2021/08/09 06:58:03;;;;;;;4.30;2.13;;;18.00;99.90;;;;;;4994174;28;20070;-72
2021/08/09 07:00:29;;;;;;;6.97;1.75;;;18.10;99.90;;;;;;4994522;28;20026;-74
2021/08/09 07:02:54;;;;;;;6.25;2.55;;;18.20;99.90;;;;;;4992943;28;20486;-72
2021/08/09 07:05:21;;;;;;;4.10;1.95;;;18.20;99.90;;;;;;4993404;28;20027;-72
2021/08/09 07:07:50;;;;;;;10.82;1.95;;;18.40;99.90;;;;;;4993523;28;20034;-73
2021/08/09 07:10:16;;;;;;;6.97;2.70;;;18.80;99.90;;;;;;4993925;28;20022;-72
2021/08/09 07:12:41;;;;;;;7.07;2.45;;;19.20;99.90;;;;;;4994015;28;20551;-72
2021/08/09 07:15:07;;;;;;;3.55;2.00;;;19.30;99.90;;;;;;4993898;28;20555;-73
2021/08/09 07:17:40;;;;;;;6.97;2.72;;;19.30;99.90;;;;;;4994377;28;20036;-73
2021/08/09 07:20:07;;;;;;;5.15;1.80;;;19.40;99.90;;;;;;4992630;28;20557;-72
2021/08/09 07:22:33;;;;;;;6.03;1.75;;;19.40;99.90;;;;;;4992408;28;20505;-72
2021/08/09 07:24:58;;;;;;;6.80;2.13;;;19.40;99.90;;;;;;4992556;28;20023;-72
2021/08/09 07:27:24;;;;;;;4.80;2.08;;;19.60;99.90;;;;;;4993775;28;20399;-71
2021/08/09 07:29:49;;;;;;;4.43;2.10;;;19.80;99.90;;;;;;4993736;28;20026;-74
2021/08/09 07:32:15;;;;;;;5.47;2.20;;;19.90;99.90;;;;;;4993681;28;20034;-72
2021/08/09 07:34:40;;;;;;;4.63;1.63;;;19.70;99.90;;;;;;4993626;28;20057;-71
2021/08/09 07:37:08;;;;;;;5.57;2.20;;;20.00;99.90;;;;;;4993244;28;20034;-74
2021/08/09 07:39:36;;;;;;;3.47;1.40;;;20.10;99.90;;;;;;4993545;28;20034;-74
2021/08/09 07:42:02;;;;;;;4.85;2.00;;;20.10;99.90;;;;;;4992197;28;20022;-72
2021/08/09 07:44:28;;;;;;;2.92;1.48;;;19.70;99.90;;;;;;4993632;28;20482;-73
2021/08/09 07:46:53;;;;;;;2.58;1.40;;;19.50;99.90;;;;;;4993132;28;20080;-73
2021/08/09 07:49:19;;;;;;;4.60;1.50;;;19.90;99.90;;;;;;4993385;28;20077;-72
2021/08/09 07:51:44;;;;;;;4.00;1.77;;;20.10;99.90;;;;;;4992178;28;20022;-73
2021/08/09 07:54:10;;;;;;;4.70;1.73;;;20.10;99.90;;;;;;4993308;28;20026;-72
2021/08/09 07:56:35;;;;;;;6.97;1.40;;;20.20;99.90;;;;;;4993256;28;20030;-72
2021/08/09 07:59:01;;;;;;;3.47;1.75;;;20.20;99.90;;;;;;4993514;28;20032;-73
2021/08/09 08:01:26;;;;;;;9.38;1.60;;;20.30;99.90;;;;;;4992994;28;20090;-73
2021/08/09 08:03:52;;;;;;;6.18;1.10;;;20.40;99.90;;;;;;4993079;28;20026;-73
2021/08/09 08:06:17;;;;;;;2.92;0.90;;;20.20;99.90;;;;;;4992920;28;20030;-75
2021/08/09 08:08:43;;;;;;;7.20;1.10;;;20.10;99.90;;;;;;4993092;28;20034;-72
2021/08/09 08:11:08;;;;;;;8.38;1.85;;;20.20;99.90;;;;;;4994485;28;20521;-72
2021/08/09 08:13:34;;;;;;;4.43;1.27;;;20.40;99.90;;;;;;4991668;28;20501;-72
2021/08/09 08:15:59;;;;;;;2.47;1.20;;;20.50;99.90;;;;;;4992559;28;20046;-71
2021/08/09 08:18:25;;;;;;;1.70;0.82;;;20.80;99.90;;;;;;4992504;28;20026;-73
2021/08/09 08:20:52;;;;;;;4.15;1.42;;;21.30;99.90;;;;;;4992911;28;20034;-74
2021/08/09 08:23:17;;;;;;;3.85;0.95;;;21.30;99.90;;;;;;4992646;28;20018;-73
2021/08/09 08:25:43;;;;;;;4.82;1.13;;;21.30;99.90;;;;;;4992816;28;20045;-72
2021/08/09 08:28:08;;;;;;;9.77;1.33;;;21.30;99.90;;;;;;4992576;28;20058;-73
2021/08/09 08:30:34;;;;;;;2.28;0.80;;;21.30;99.90;;;;;;4992870;28;20038;-71
2021/08/09 08:33:00;;;;;;;9.73;1.20;;;21.40;99.90;;;;;;4992654;28;20105;-72
2021/08/09 08:35:25;;;;;;;2.83;0.90;;;21.60;99.90;;;;;;4992610;28;20110;-72
2021/08/09 08:37:52;;;;;;;3.65;1.10;;;21.80;99.90;;;;;;4992446;28;20105;-72
2021/08/09 08:40:18;;;;;;;5.05;1.80;;;21.80;99.90;;;;;;4992586;28;20486;-73
2021/08/09 08:42:46;;;;;;;1.75;1.20;;;21.70;99.90;;;;;;4992465;28;20061;-73
2021/08/09 08:45:17;;;;;;;4.05;0.80;;;21.80;99.90;;;;;;4991175;28;20027;-72
2021/08/09 08:47:43;;;;;;;1.63;0.70;;;21.90;99.90;;;;;;4992680;28;20028;-71
2021/08/09 08:50:10;;;;;;;4.70;1.17;;;21.90;99.90;;;;;;4992489;28;20105;-72
2021/08/09 08:52:41;;;;;;;3.15;0.70;;;22.10;99.90;;;;;;4991080;28;20034;-74
2021/08/09 08:55:07;;;;;;;1.75;0.85;;;22.20;99.90;;;;;;4990957;28;20057;-72
2021/08/09 08:57:32;;;;;;;2.58;1.10;;;22.10;99.90;;;;;;4990989;28;20061;-72
2021/08/09 08:59:58;;;;;;;2.92;0.90;;;22.30;99.90;;;;;;4992315;28;20025;-72
2021/08/09 09:02:38;;;;;;;7.63;1.20;;;22.70;99.90;;;;;;4992456;28;20034;-72
2021/08/09 09:05:17;;;;;;;2.17;0.90;;;22.60;99.90;;;;;;4992628;28;20106;-73
2021/08/09 09:07:47;;;;;;;1.90;0.68;;;22.30;99.30;;;;;;4992090;28;20088;-73
2021/08/09 09:10:23;;;;;;;1.15;0.50;;;22.30;99.50;;;;;;4992391;28;20054;-73
2021/08/09 09:13:09;;;;;;;2.80;0.70;;;22.30;99.30;;;;;;4992322;28;20031;-71
2021/08/09 09:15:55;;;;;;;2.88;0.70;;;22.50;99.60;;;;;;4992178;28;20023;-73
2021/08/09 09:18:21;;;;;;;1.58;0.63;;;22.60;98.50;;;;;;4991845;28;20486;-72
2021/08/09 09:20:47;;;;;;;1.27;0.60;;;22.60;98.20;;;;;;4992180;28;20058;-73
2021/08/09 09:23:22;;;;;;;1.85;0.75;;;22.90;97.70;;;;;;4990728;28;20602;-72
2021/08/09 09:25:49;;;;;;;2.00;0.75;;;23.00;96.90;;;;;;4992495;28;20023;-73
2021/08/09 09:28:24;;;;;;;2.08;0.60;;;23.20;96.40;;;;;;4992038;28;20022;-73
2021/08/09 09:30:50;;;;;;;2.13;0.60;;;23.20;96.50;;;;;;4995781;28;20026;-72
2021/08/09 09:33:16;;;;;;;1.23;0.50;;;23.40;96.20;;;;;;4995920;28;20501;-73
2021/08/09 09:35:42;;;;;;;1.83;0.63;;;23.20;95.60;;;;;;4995886;28;20034;-72
2021/08/09 09:38:08;;;;;;;3.22;0.63;;;23.50;94.30;;;;;;4995770;28;20062;-72
2021/08/09 09:40:41;;;;;;;2.05;0.70;;;23.80;94.40;;;;;;4994498;28;20077;-72
2021/08/09 09:43:20;;;;;;;1.65;0.68;;;23.80;94.40;;;;;;4995618;28;20471;-72
2021/08/09 09:45:54;;;;;;;4.00;0.80;;;23.90;94.20;;;;;;4995479;28;20026;-73
2021/08/09 09:48:35;;;;;;;2.58;0.73;;;23.80;93.90;;;;;;4994236;28;20077;-71
2021/08/09 09:51:17;;;;;;;0.88;0.50;;;23.80;94.00;;;;;;4995672;28;20019;-71
2021/08/09 09:53:44;;;;;;;1.38;0.65;;;23.80;93.60;;;;;;4995555;28;20041;-72
2021/08/09 09:56:10;;;;;;;1.02;0.47;;;23.70;93.60;;;;;;4995458;28;20105;-72
2021/08/09 09:58:37;;;;;;;0.90;0.50;;;23.40;93.20;;;;;;4995225;28;20109;-74
2021/08/09 10:01:07;;;;;;;1.02;0.60;;;23.40;93.30;;;;;;4995406;28;20114;-73
2021/08/09 10:03:35;;;;;;;3.03;1.05;;;23.30;93.40;;;;;;4995451;28;20058;-73
2021/08/09 10:06:01;;;;;;;2.17;0.77;;;23.30;93.90;;;;;;4993916;28;20550;-72
2021/08/09 10:08:43;;;;;;;1.92;1.30;;;23.60;93.80;;;;;;4995385;28;20036;-73
2021/08/09 10:11:10;;;;;;;3.60;2.20;;;23.80;92.70;;;;;;4995272;28;20022;-73
2021/08/09 10:13:37;;;;;;;2.72;0.93;;;23.90;93.10;;;;;;4995211;28;20505;-71
2021/08/09 10:16:05;;;;;;;1.52;0.68;;;23.80;92.60;;;;;;4995265;28;20364;-73
2021/08/09 10:18:37;;;;;;;1.10;0.60;;;24.30;92.80;;;;;;4994978;28;20022;-73
2021/08/09 10:21:04;;;;;;;2.53;1.10;;;24.30;92.50;;;;;;4995110;28;20037;-73
2021/08/09 10:23:46;;;;;;;1.52;0.70;;;24.00;91.70;;;;;;4994975;28;20035;-73
2021/08/09 10:26:31;;;;;;;3.55;0.70;;;24.20;92.10;;;;;;4994824;28;20033;-72
2021/08/09 10:29:07;;;;;;;2.47;0.80;;;24.50;91.70;;;;;;4994779;28;20454;-73
2021/08/09 10:31:41;;;;;;;1.60;0.77;;;24.50;91.70;;;;;;4994966;28;20022;-73
2021/08/09 10:34:30;;;;;;;2.05;1.00;;;24.70;91.90;;;;;;4994941;28;20050;-73
2021/08/09 10:37:14;;;;;;;4.53;0.68;;;24.80;91.80;;;;;;4994441;28;20037;-72
2021/08/09 10:39:49;;;;;;;1.15;0.70;;;24.30;91.50;;;;;;4994573;28;20378;-72
2021/08/09 10:42:32;;;;;;;2.17;0.85;;;23.90;91.40;;;;;;4994574;28;20054;-73
2021/08/09 10:44:58;;;;;;;1.80;0.80;;;24.00;91.70;;;;;;4993086;28;20026;-72
2021/08/09 10:47:46;;;;;;;1.10;0.70;;;24.30;92.20;;;;;;4994547;28;20402;-72
2021/08/09 10:50:42;;;;;;;2.65;1.10;;;24.50;92.10;;;;;;4993447;28;20502;-72
2021/08/09 10:53:26;;;;;;;3.80;0.70;;;24.00;91.70;;;;;;4993286;28;20034;-71
2021/08/09 10:55:58;;;;;;;1.35;0.60;;;23.80;92.40;;;;;;4994211;28;20110;-72
2021/08/09 10:58:42;;;;;;;0.90;0.57;;;23.80;92.00;;;;;;4994342;28;20034;-72
2021/08/09 11:01:15;;;;;;;1.05;0.77;;;23.60;91.90;;;;;;4994362;28;20076;-73
2021/08/09 11:03:59;;;;;;;2.33;0.80;;;23.90;91.60;;;;;;4994316;28;20027;-72
2021/08/09 11:06:52;;;;;;;1.33;0.75;;;23.90;91.60;;;;;;4992646;28;20487;-72
2021/08/09 11:09:29;;;;;;;2.63;1.00;;;24.30;91.30;;;;;;4994101;28;20030;-73
2021/08/09 11:12:13;;;;;;;1.50;0.95;;;24.50;91.10;;;;;;4994074;28;20525;-73
2021/08/09 11:15:04;;;;;;;1.67;0.85;;;24.20;90.80;;;;;;4994228;28;20027;-72
2021/08/09 11:17:38;;;;;;;0.73;0.60;;;24.00;90.20;;;;;;4992601;28;20038;-72
2021/08/09 11:20:21;;;;;;;2.63;0.65;;;23.90;91.00;;;;;;4994039;28;20034;-72
2021/08/09 11:22:55;;;;;;;1.00;0.68;;;23.90;90.80;;;;;;4992665;28;20026;-72
2021/08/09 11:25:28;;;;;;;1.17;0.80;;;24.10;90.90;;;;;;4993811;28;20034;-70
2021/08/09 11:28:02;;;;;;;1.05;0.70;;;24.20;91.10;;;;;;4993874;28;20034;-73
2021/08/09 11:30:52;;;;;;;1.58;0.65;;;23.90;91.50;;;;;;4993915;28;20022;-72
2021/08/09 11:33:37;;;;;;;2.55;0.70;;;23.80;91.50;;;;;;4983029;28;20042;-73
2021/08/09 11:36:03;;;;;;;2.00;0.70;;;23.80;92.20;;;;;;4993597;28;20467;-73
2021/08/09 11:38:41;;;;;;;0.88;0.70;;;24.10;91.70;;;;;;4992361;28;20023;-73
2021/08/09 11:41:10;;;;;;;1.15;0.70;;;24.50;91.50;;;;;;4993558;28;20090;-72
2021/08/09 11:43:37;;;;;;;1.58;0.68;;;24.80;91.60;;;;;;4993609;28;20015;-72
2021/08/09 11:46:09;;;;;;;2.63;0.88;;;25.00;91.00;;;;;;4993271;28;20026;-72
2021/08/09 11:48:38;;;;;;;1.05;0.60;;;24.90;91.90;;;;;;4993577;28;20501;-72
2021/08/09 11:51:09;;;;;;;1.27;0.80;;;25.60;87.80;;;;;;4993314;28;20065;-72
2021/08/09 11:53:38;;;;;;;1.63;0.82;;;26.10;89.30;;;;;;4992711;28;20027;-72
2021/08/09 11:56:13;;;;;;;1.67;0.73;;;26.20;87.70;;;;;;4993198;28;20070;-73
2021/08/09 11:58:39;;;;;;;1.05;0.73;;;25.60;89.00;;;;;;4993379;28;20034;-73
2021/08/09 12:01:05;;;;;;;3.03;0.63;;;24.50;90.40;;;;;;4993313;28;20386;-73
2021/08/09 12:03:31;;;;;;;1.95;0.85;;;24.40;91.00;;;;;;4992000;28;20152;-73
2021/08/09 12:06:20;;;;;;;1.02;0.60;;;24.40;90.70;;;;;;4993074;28;20057;-72
2021/08/09 12:08:55;;;;;;;1.50;0.77;;;24.40;90.40;;;;;;4993163;28;20049;-73
2021/08/09 12:11:29;;;;;;;1.20;0.65;;;24.70;90.80;;;;;;4992836;28;20089;-72
2021/08/09 12:14:21;;;;;;;0.88;0.63;;;24.60;89.60;;;;;;4991798;28;20057;-72
2021/08/09 12:16:55;;;;;;;1.67;0.85;;;24.80;90.00;;;;;;4988350;28;20046;-72
2021/08/09 12:19:43;;;;;;;4.03;1.40;;;25.10;88.20;;;;;;4992942;28;20117;-74
2021/08/09 12:22:14;;;;;;;0.85;0.70;;;25.60;85.70;;;;;;4992687;28;20034;-73
2021/08/09 12:25:01;;;;;;;1.92;0.73;;;25.40;87.70;;;;;;4992785;28;20026;-72
2021/08/09 12:27:27;;;;;;;1.15;0.63;;;25.50;86.20;;;;;;4992724;28;20060;-72
2021/08/09 12:30:06;;;;;;;2.00;0.80;;;25.40;85.40;;;;;;4992704;28;20064;-73
2021/08/09 12:32:32;;;;;;;1.08;0.63;;;25.80;84.10;;;;;;4992583;28;20401;-71
2021/08/09 12:34:59;;;;;;;1.73;0.70;;;26.00;84.10;;;;;;4993050;28;20096;-73
2021/08/09 12:37:24;;;;;;;2.15;0.85;;;26.30;84.20;;;;;;4992282;28;20085;-72
2021/08/09 12:39:50;;;;;;;1.52;0.90;;;26.20;82.20;;;;;;4992741;28;20030;-73
2021/08/09 12:42:17;;;;;;;2.05;1.27;;;25.80;78.90;;;;;;4992669;28;20054;-73
2021/08/09 12:44:44;;;;;;;2.00;0.90;;;25.40;80.60;;;;;;4992564;28;20393;-73
2021/08/09 12:47:09;;;;;;;2.00;0.60;;;25.40;81.10;;;;;;4992477;28;20466;-72
2021/08/09 12:49:35;;;;;;;1.20;0.80;;;25.40;84.10;;;;;;4991098;28;20037;-73
2021/08/09 12:52:00;;;;;;;4.13;1.20;;;25.50;85.10;;;;;;4992428;28;20133;-74
2021/08/09 12:54:26;;;;;;;1.73;0.90;;;25.70;84.90;;;;;;4992460;28;20026;-72